createdAt,value
2023-03-03T00:00:54.855Z,98873.56
2023-03-03T00:03:03.353Z,98867.13
2023-03-03T00:05:07.989Z,98864.63
2023-03-03T00:07:11.507Z,98866.09
2023-03-03T00:09:12.979Z,98870.91
2023-03-03T00:11:14.627Z,98874.84
2023-03-03T00:13:18.608Z,98872.38
2023-03-03T00:15:23.192Z,98878.44
2023-03-03T00:17:29.948Z,98882.59
2023-03-03T00:19:39.918Z,98877.19
2023-03-03T00:21:45.065Z,98877.78
2023-03-03T00:23:47.261Z,98875.50
2023-03-03T00:25:53.709Z,98877.00
2023-03-03T00:27:55.465Z,98870.97
2023-03-03T00:29:59.578Z,98871.38
2023-03-03T00:32:10.749Z,98871.81
2023-03-03T00:34:18.496Z,98871.38
2023-03-03T00:36:39.045Z,98885.53
2023-03-03T00:38:40.942Z,98880.56
2023-03-03T00:40:42.671Z,98887.22
2023-03-03T00:42:51.740Z,98884.13
2023-03-03T00:45:00.308Z,98881.22
2023-03-03T00:47:19.014Z,98881.41
2023-03-03T00:49:27.224Z,98882.47
2023-03-03T00:51:34.411Z,98891.81
2023-03-03T00:53:36.290Z,98888.06
2023-03-03T00:55:38.188Z,98897.41
2023-03-03T00:57:39.967Z,98895.97
2023-03-03T00:59:44.458Z,98900.97
2023-03-03T01:01:46.126Z,98893.06
2023-03-03T01:03:48.107Z,98895.16
2023-03-03T01:05:50.874Z,98892.84
2023-03-03T01:07:52.493Z,98897.66
2023-03-03T01:09:53.986Z,98894.31
2023-03-03T01:11:56.218Z,98885.00
2023-03-03T01:13:58.037Z,98889.75
2023-03-03T01:16:03.248Z,98889.75
2023-03-03T01:18:04.907Z,98888.28
2023-03-03T01:20:13.923Z,98888.50
2023-03-03T01:22:16.038Z,98892.25
2023-03-03T01:24:17.640Z,98883.94
2023-03-03T01:26:19.207Z,98886.00
2023-03-03T01:28:20.947Z,98886.41
2023-03-03T01:30:23.402Z,98885.41
2023-03-03T01:32:25.952Z,98883.94
2023-03-03T01:34:27.497Z,98884.78
2023-03-03T01:36:29.574Z,98878.72
2023-03-03T01:38:31.859Z,98884.97
2023-03-03T01:40:33.516Z,98879.16
2023-03-03T01:42:37.000Z,98881.22
2023-03-03T01:44:38.574Z,98877.06
2023-03-03T01:46:46.699Z,98873.13
2023-03-03T01:48:48.523Z,98879.34
2023-03-03T01:51:19.014Z,98878.09
2023-03-03T01:53:41.734Z,98875.84
2023-03-03T01:55:45.185Z,98881.41
2023-03-03T01:57:53.052Z,98863.56
2023-03-03T01:59:56.934Z,98866.47
2023-03-03T02:01:58.872Z,98868.53
2023-03-03T02:04:02.700Z,98863.13
2023-03-03T02:06:08.192Z,98863.56
2023-03-03T02:08:12.828Z,98865.84
2023-03-03T02:10:17.475Z,98866.03
2023-03-03T02:12:22.548Z,98874.34
2023-03-03T02:14:25.139Z,98859.59
2023-03-03T02:16:27.036Z,98857.94
2023-03-03T02:18:28.928Z,98866.03
2023-03-03T02:20:33.317Z,98872.69
2023-03-03T02:22:44.491Z,98870.38
2023-03-03T02:24:57.459Z,98875.56
2023-03-03T02:26:59.146Z,98870.38
2023-03-03T02:29:04.074Z,98878.66
2023-03-03T02:31:13.046Z,98880.53
2023-03-03T02:33:15.727Z,98871.81
2023-03-03T02:35:29.705Z,98873.88
2023-03-03T02:37:31.612Z,98872.22
2023-03-03T02:39:33.288Z,98873.44
2023-03-03T02:41:46.814Z,98872.81
2023-03-03T02:43:59.033Z,98877.59
2023-03-03T02:46:01.273Z,98880.50
2023-03-03T02:48:02.788Z,98876.34
2023-03-03T02:50:04.878Z,98877.38
2023-03-03T02:52:09.895Z,98883.16
2023-03-03T02:54:15.367Z,98882.56
2023-03-03T02:56:16.892Z,98876.31
2023-03-03T02:58:18.949Z,98878.78
2023-03-03T03:00:22.350Z,98881.69
2023-03-03T03:02:24.485Z,98875.69
2023-03-03T03:04:27.962Z,98874.00
2023-03-03T03:06:30.194Z,98872.34
2023-03-03T03:08:31.835Z,98875.47
2023-03-03T03:10:33.790Z,98881.25
2023-03-03T03:12:35.614Z,98884.13
2023-03-03T03:14:37.261Z,98883.31
2023-03-03T03:16:41.041Z,98887.25
2023-03-03T03:18:42.640Z,98877.69
2023-03-03T03:20:46.136Z,98884.13
2023-03-03T03:22:48.586Z,98887.03
2023-03-03T03:24:50.185Z,98897.75
2023-03-03T03:26:51.817Z,98898.38
2023-03-03T03:28:54.919Z,98894.03
2023-03-03T03:30:56.824Z,98906.06
2023-03-03T03:32:58.403Z,98907.28
2023-03-03T03:35:00.139Z,98903.53
2023-03-03T03:37:02.045Z,98906.41
2023-03-03T03:39:06.320Z,98902.91
2023-03-03T03:41:13.042Z,98895.19
2023-03-03T03:43:14.928Z,98896.22
2023-03-03T03:45:16.726Z,98890.00
2023-03-03T03:47:21.128Z,98896.63
2023-03-03T03:49:22.876Z,98883.56
2023-03-03T03:51:27.510Z,98876.50
2023-03-03T03:53:29.150Z,98877.50
2023-03-03T03:55:30.998Z,98884.78
2023-03-03T03:57:33.127Z,98886.19
2023-03-03T03:59:34.836Z,98880.19
2023-03-03T04:01:36.473Z,98881.41
2023-03-03T04:03:38.359Z,98886.81
2023-03-03T04:05:44.555Z,98888.66
2023-03-03T04:07:46.743Z,98892.78
2023-03-03T04:09:50.163Z,98906.25
2023-03-03T04:11:52.052Z,98909.97
2023-03-03T04:13:53.848Z,98904.97
2023-03-03T04:15:56.356Z,98907.88
2023-03-03T04:17:58.100Z,98906.19
2023-03-03T04:20:00.858Z,98913.66
2023-03-03T04:22:02.792Z,98907.63
2023-03-03T04:24:05.772Z,98897.69
2023-03-03T04:26:09.124Z,98900.41
2023-03-03T04:28:11.257Z,98900.78
2023-03-03T04:30:15.239Z,98897.47
2023-03-03T04:32:19.296Z,98897.63
2023-03-03T04:34:22.296Z,98900.53
2023-03-03T04:36:23.928Z,98903.63
2023-03-03T04:38:26.203Z,98901.13
2023-03-03T04:40:29.542Z,98905.88
2023-03-03T04:42:31.604Z,98909.59
2023-03-03T04:44:33.547Z,98903.38
2023-03-03T04:46:35.733Z,98896.53
2023-03-03T04:48:38.958Z,98910.19
2023-03-03T04:50:42.436Z,98913.91
2023-03-03T04:52:44.271Z,98920.34
2023-03-03T04:54:47.635Z,98912.63
2023-03-03T04:56:49.420Z,98914.28
2023-03-03T04:58:52.333Z,98923.41
2023-03-03T05:00:55.931Z,98924.63
2023-03-03T05:02:59.486Z,98924.63
2023-03-03T05:05:01.268Z,98924.19
2023-03-03T05:07:03.260Z,98924.56
2023-03-03T05:09:04.791Z,98928.31
2023-03-03T05:11:06.751Z,98918.53
2023-03-03T05:13:09.501Z,98919.59
2023-03-03T05:15:11.231Z,98919.59
2023-03-03T05:17:12.828Z,98923.28
2023-03-03T05:19:14.522Z,98918.75
2023-03-03T05:21:16.172Z,98925.34
2023-03-03T05:23:18.898Z,98929.69
2023-03-03T05:25:21.839Z,98933.59
2023-03-03T05:27:23.748Z,98939.19
2023-03-03T05:29:26.251Z,98939.19
2023-03-03T05:31:27.997Z,98934.81
2023-03-03T05:33:29.552Z,98936.88
2023-03-03T05:35:31.318Z,98939.78
2023-03-03T05:37:32.995Z,98947.03
2023-03-03T05:39:35.286Z,98953.25
2023-03-03T05:41:37.049Z,98946.56
2023-03-03T05:43:38.597Z,98952.16
2023-03-03T05:45:40.529Z,98952.16
2023-03-03T05:47:42.600Z,98948.44
2023-03-03T05:49:44.235Z,98944.06
2023-03-03T05:51:45.923Z,98928.94
2023-03-03T05:53:47.617Z,98935.38
2023-03-03T05:55:49.980Z,98944.44
2023-03-03T05:57:51.827Z,98950.69
2023-03-03T05:59:53.387Z,98954.22
2023-03-03T06:01:55.073Z,98949.19
2023-03-03T06:03:56.723Z,98950.03
2023-03-03T06:05:58.483Z,98949.19
2023-03-03T06:08:00.122Z,98951.06
2023-03-03T06:10:01.955Z,98950.63
2023-03-03T06:12:09.778Z,98962.03
2023-03-03T06:14:11.563Z,98966.78
2023-03-03T06:16:13.394Z,98964.88
2023-03-03T06:18:15.178Z,98965.09
2023-03-03T06:20:16.865Z,98966.09
2023-03-03T06:22:19.065Z,98969.84
2023-03-03T06:24:20.830Z,98972.53
2023-03-03T06:26:23.089Z,98973.75
2023-03-03T06:28:25.150Z,98979.13
2023-03-03T06:30:28.353Z,98978.28
2023-03-03T06:32:30.146Z,98991.53
2023-03-03T06:34:31.830Z,98989.69
2023-03-03T06:36:33.476Z,98989.31
2023-03-03T06:38:35.168Z,98991.81
2023-03-03T06:40:36.696Z,98994.31
2023-03-03T06:42:38.308Z,98998.50
2023-03-03T06:44:40.040Z,98997.84
2023-03-03T06:46:41.649Z,99003.88
2023-03-03T06:48:43.358Z,99008.03
2023-03-03T06:50:44.880Z,99009.69
2023-03-03T06:52:46.511Z,99011.38
2023-03-03T06:54:48.254Z,99012.66
2023-03-03T06:56:53.903Z,99009.94
2023-03-03T06:58:58.270Z,99012.25
2023-03-03T07:01:01.459Z,99016.44
2023-03-03T07:03:12.337Z,99014.59
2023-03-03T07:05:18.229Z,99016.31
2023-03-03T07:07:25.797Z,99023.19
2023-03-03T07:09:29.819Z,99020.75
2023-03-03T07:11:31.533Z,99024.53
2023-03-03T07:13:34.082Z,99035.34
2023-03-03T07:15:36.038Z,99034.00
2023-03-03T07:17:43.436Z,99026.44
2023-03-03T07:19:46.368Z,99038.97
2023-03-03T07:21:47.928Z,99041.59
2023-03-03T07:23:52.058Z,99046.69
2023-03-03T07:25:53.819Z,99055.31
2023-03-03T07:28:00.967Z,99044.88
2023-03-03T07:30:24.647Z,99047.44
2023-03-03T07:32:34.314Z,99043.81
2023-03-03T07:34:39.849Z,99034.75
2023-03-03T07:36:41.876Z,99044.78
2023-03-03T07:38:53.026Z,99047.53
2023-03-03T07:40:56.958Z,99050.06
2023-03-03T07:42:58.532Z,99053.59
2023-03-03T07:45:34.739Z,99053.63
2023-03-03T07:47:37.218Z,99064.88
2023-03-03T07:49:39.043Z,99070.00
2023-03-03T07:51:42.242Z,99076.84
2023-03-03T07:53:44.045Z,99077.63
2023-03-03T07:55:46.404Z,99075.44
2023-03-03T07:57:51.957Z,99075.31
2023-03-03T07:59:58.591Z,99067.53
2023-03-03T08:02:00.568Z,99067.81
2023-03-03T08:04:02.353Z,99072.31
2023-03-03T08:06:35.846Z,99070.34
2023-03-03T08:08:37.409Z,99078.59
2023-03-03T08:10:48.380Z,99074.56
2023-03-03T08:12:50.111Z,99070.50
2023-03-03T08:14:54.328Z,99066.91
2023-03-03T08:16:57.630Z,99071.44
2023-03-03T08:19:03.735Z,99062.44
2023-03-03T08:21:16.570Z,99068.25
2023-03-03T08:23:19.380Z,99074.31
2023-03-03T08:25:21.032Z,99058.59
2023-03-03T08:27:22.556Z,99061.09
2023-03-03T08:29:24.742Z,99055.44
2023-03-03T08:31:40.314Z,99054.97
2023-03-03T08:33:42.542Z,99064.78
2023-03-03T08:35:45.233Z,99055.38
2023-03-03T08:37:46.912Z,99051.38
2023-03-03T08:39:48.540Z,99055.50
2023-03-03T08:41:50.551Z,99062.97
2023-03-03T08:43:52.097Z,99057.69
2023-03-03T08:45:58.178Z,99063.53
2023-03-03T08:48:01.388Z,99068.28
2023-03-03T08:50:03.342Z,99059.22
2023-03-03T08:52:05.138Z,99057.25
2023-03-03T08:54:07.320Z,99057.41
2023-03-03T08:56:10.224Z,99057.56
2023-03-03T08:58:12.110Z,99060.63
2023-03-03T09:00:16.640Z,99060.31
2023-03-03T09:02:18.220Z,99054.81
2023-03-03T09:04:19.781Z,99062.66
2023-03-03T09:06:21.292Z,99057.50
2023-03-03T09:08:22.918Z,99048.53
2023-03-03T09:10:29.353Z,99048.34
2023-03-03T09:12:35.765Z,99056.44
2023-03-03T09:14:37.489Z,99061.09
2023-03-03T09:17:03.390Z,99049.78
2023-03-03T09:19:25.849Z,99061.16
2023-03-03T09:21:32.956Z,99048.78
2023-03-03T09:23:36.934Z,99050.50
2023-03-03T09:25:40.741Z,99056.53
2023-03-03T09:27:43.485Z,99053.31
2023-03-03T09:29:45.309Z,99053.00
2023-03-03T09:31:55.786Z,99048.59
2023-03-03T09:33:59.387Z,99053.41
2023-03-03T09:36:12.514Z,99049.44
2023-03-03T09:38:33.618Z,99054.50
2023-03-03T09:41:00.902Z,99051.56
2023-03-03T09:43:25.873Z,99054.06
2023-03-03T09:46:06.945Z,99045.25
2023-03-03T09:48:17.654Z,99049.59
2023-03-03T09:50:56.444Z,99050.03
2023-03-03T09:53:28.354Z,99049.06
2023-03-03T09:55:57.997Z,99049.44
2023-03-03T09:58:11.393Z,99051.97
2023-03-03T10:00:46.762Z,99054.56
2023-03-03T10:03:08.714Z,99058.44
2023-03-03T10:05:30.049Z,99059.56
2023-03-03T10:07:55.566Z,99058.22
2023-03-03T10:10:12.432Z,99059.03
2023-03-03T10:12:33.708Z,99045.81
2023-03-03T10:14:44.607Z,99056.00
2023-03-03T10:16:52.747Z,99053.50
2023-03-03T10:19:15.478Z,99051.25
2023-03-03T10:21:23.419Z,99055.03
2023-03-03T10:23:36.912Z,99053.91
2023-03-03T10:25:47.109Z,99052.78
2023-03-03T10:28:13.517Z,99056.28
2023-03-03T10:30:38.273Z,99058.72
2023-03-03T10:33:22.336Z,99063.09
2023-03-03T10:35:44.434Z,99067.75
2023-03-03T10:37:54.435Z,99067.38
2023-03-03T10:40:30.180Z,99064.03
2023-03-03T10:43:00.628Z,99067.81
2023-03-03T10:45:20.906Z,99058.66
2023-03-03T10:47:53.890Z,99059.97
2023-03-03T10:50:34.443Z,99053.28
2023-03-03T10:52:42.600Z,99049.63
2023-03-03T10:54:44.048Z,99052.06
2023-03-03T10:57:16.033Z,99061.66
2023-03-03T10:59:32.868Z,99050.28
2023-03-03T11:02:02.141Z,99053.25
2023-03-03T11:04:17.188Z,99048.22
2023-03-03T11:06:40.695Z,99047.06
2023-03-03T11:08:57.594Z,99050.28
2023-03-03T11:11:18.196Z,99046.91
2023-03-03T11:13:38.702Z,99039.91
2023-03-03T11:15:50.121Z,99042.59
2023-03-03T11:18:06.851Z,99040.31
2023-03-03T11:20:42.608Z,99037.47
2023-03-03T11:23:01.393Z,99031.06
2023-03-03T11:25:08.796Z,99030.16
2023-03-03T11:27:20.516Z,99027.66
2023-03-03T11:29:45.330Z,99035.34
2023-03-03T11:31:49.692Z,99024.56
2023-03-03T11:34:06.669Z,99027.84
2023-03-03T11:36:19.139Z,99028.94
2023-03-03T11:38:52.899Z,99024.50
2023-03-03T11:41:04.735Z,99031.97
2023-03-03T11:43:36.732Z,99025.28
2023-03-03T11:45:45.081Z,99023.59
2023-03-03T11:48:01.054Z,99019.41
2023-03-03T11:50:10.792Z,99007.75
2023-03-03T11:52:22.063Z,99003.88
2023-03-03T11:54:32.707Z,99001.34
2023-03-03T11:56:42.953Z,99001.53
2023-03-03T11:58:49.619Z,98988.78
2023-03-03T12:00:58.609Z,99002.00
2023-03-03T12:03:21.374Z,98987.06
2023-03-03T12:05:38.674Z,98988.41
2023-03-03T12:08:15.605Z,98991.69
2023-03-03T12:10:28.848Z,98989.44
2023-03-03T12:12:39.633Z,98986.38
2023-03-03T12:15:02.617Z,98969.47
2023-03-03T12:17:34.151Z,98973.06
2023-03-03T12:19:44.663Z,98972.16
2023-03-03T12:22:04.775Z,98966.03
2023-03-03T12:24:11.149Z,98960.72
2023-03-03T12:26:41.447Z,98964.50
2023-03-03T12:28:55.302Z,98954.47
2023-03-03T12:31:22.918Z,98965.78
2023-03-03T12:33:49.594Z,98963.22
2023-03-03T12:36:02.803Z,98961.19
2023-03-03T12:38:31.088Z,98966.94
2023-03-03T12:40:35.661Z,98970.13
2023-03-03T12:43:09.372Z,98958.16
2023-03-03T12:45:20.244Z,98948.66
2023-03-03T12:47:29.595Z,98947.13
2023-03-03T12:49:48.091Z,98958.63
2023-03-03T12:52:18.037Z,98953.00
2023-03-03T12:54:53.651Z,98953.41
2023-03-03T12:57:02.025Z,98942.78
2023-03-03T12:59:29.677Z,98945.44
2023-03-03T13:01:36.937Z,98943.19
2023-03-03T13:03:49.662Z,98943.06
2023-03-03T13:06:15.558Z,98946.84
2023-03-03T13:08:34.231Z,98936.59
2023-03-03T13:10:38.884Z,98949.53
2023-03-03T13:12:43.290Z,98938.97
2023-03-03T13:14:56.801Z,98935.06
2023-03-03T13:17:17.958Z,98933.94
2023-03-03T13:19:30.803Z,98934.34
2023-03-03T13:21:41.880Z,98938.44
2023-03-03T13:24:05.581Z,98937.00
2023-03-03T13:26:25.755Z,98931.34
2023-03-03T13:29:12.592Z,98930.44
2023-03-03T13:31:21.829Z,98924.78
2023-03-03T13:33:31.035Z,98916.69
2023-03-03T13:35:32.966Z,98928.28
2023-03-03T13:37:52.578Z,98930.72
2023-03-03T13:40:06.081Z,98928.50
2023-03-03T13:42:28.294Z,98924.88
2023-03-03T13:44:42.850Z,98926.00
2023-03-03T13:46:50.234Z,98924.06
2023-03-03T13:49:10.664Z,98924.88
2023-03-03T13:51:35.714Z,98921.91
2023-03-03T13:54:13.053Z,98916.19
2023-03-03T13:56:29.872Z,98921.50
2023-03-03T13:58:57.380Z,98916.91
2023-03-03T14:01:06.650Z,98906.41
2023-03-03T14:03:26.141Z,98909.50
2023-03-03T14:05:48.680Z,98910.72
2023-03-03T14:07:56.449Z,98912.16
2023-03-03T14:10:25.577Z,98913.94
2023-03-03T14:12:44.765Z,98914.31
2023-03-03T14:15:05.215Z,98913.81
2023-03-03T14:17:29.901Z,98910.94
2023-03-03T14:19:36.928Z,98913.81
2023-03-03T14:22:01.971Z,98907.88
2023-03-03T14:24:18.425Z,98907.75
2023-03-03T14:26:20.204Z,98910.94
2023-03-03T14:28:24.945Z,98905.00
2023-03-03T14:30:35.249Z,98899.84
2023-03-03T14:32:45.465Z,98895.84
2023-03-03T14:34:59.054Z,98897.66
2023-03-03T14:37:21.651Z,98895.06
2023-03-03T14:39:32.564Z,98896.28
2023-03-03T14:41:41.009Z,98894.50
2023-03-03T14:43:46.244Z,98905.97
2023-03-03T14:45:48.093Z,98902.47
2023-03-03T14:47:50.126Z,98901.22
2023-03-03T14:49:52.754Z,98901.63
2023-03-03T14:52:03.558Z,98902.56
2023-03-03T14:54:14.333Z,98900.19
2023-03-03T14:56:27.908Z,98910.00
2023-03-03T14:58:41.354Z,98899.34
2023-03-03T15:00:43.178Z,98898.06
2023-03-03T15:02:49.866Z,98900.41
2023-03-03T15:05:14.072Z,98891.13
2023-03-03T15:07:37.309Z,98895.16
2023-03-03T15:09:50.454Z,98887.84
2023-03-03T15:11:54.214Z,98887.91
2023-03-03T15:14:15.760Z,98892.72
2023-03-03T15:16:25.350Z,98892.56
2023-03-03T15:18:28.711Z,98888.53
2023-03-03T15:20:48.233Z,98887.78
2023-03-03T15:23:11.178Z,98888.44
2023-03-03T15:25:42.205Z,98887.72
2023-03-03T15:28:06.285Z,98888.41
2023-03-03T15:30:47.587Z,98881.63
2023-03-03T15:33:08.945Z,98890.00
2023-03-03T15:35:20.577Z,98895.88
2023-03-03T15:37:47.745Z,98886.59
2023-03-03T15:40:04.512Z,98893.84
2023-03-03T15:42:35.882Z,98891.97
2023-03-03T15:45:06.611Z,98897.03
2023-03-03T15:47:21.733Z,98896.81
2023-03-03T15:49:41.922Z,98894.13
2023-03-03T15:52:21.569Z,98886.75
2023-03-03T15:54:47.429Z,98894.25
2023-03-03T15:56:54.280Z,98889.63
2023-03-03T15:59:10.700Z,98894.88
2023-03-03T16:01:31.319Z,98888.03
2023-03-03T16:03:47.219Z,98899.41
2023-03-03T16:06:03.935Z,98889.75
2023-03-03T16:08:17.635Z,98896.09
2023-03-03T16:10:34.791Z,98896.69
2023-03-03T16:12:44.149Z,98902.47
2023-03-03T16:15:05.842Z,98899.50
2023-03-03T16:17:32.668Z,98903.91
2023-03-03T16:20:17.936Z,98906.97
2023-03-03T16:22:40.807Z,98906.44
2023-03-03T16:25:19.594Z,98914.69
2023-03-03T16:27:46.099Z,98913.88
2023-03-03T16:30:12.322Z,98920.19
2023-03-03T16:32:25.841Z,98925.41
2023-03-03T16:34:46.065Z,98932.47
2023-03-03T16:37:12.530Z,98923.69
2023-03-03T16:39:21.586Z,98930.28
2023-03-03T16:41:51.371Z,98934.13
2023-03-03T16:44:12.860Z,98934.09
2023-03-03T16:46:33.297Z,98942.84
2023-03-03T16:49:00.608Z,98933.22
2023-03-03T16:51:27.795Z,98938.44
2023-03-03T16:53:53.436Z,98942.78
2023-03-03T16:56:22.881Z,98947.69
2023-03-03T16:58:52.829Z,98952.84
2023-03-03T17:01:32.462Z,98950.66
2023-03-03T17:04:06.762Z,98953.88
2023-03-03T17:06:31.398Z,98955.19
2023-03-03T17:09:08.582Z,98960.06
2023-03-03T17:11:22.866Z,98967.13
2023-03-03T17:13:48.424Z,98961.28
2023-03-03T17:16:04.292Z,98965.13
2023-03-03T17:18:48.155Z,98974.09
2023-03-03T17:20:56.547Z,98981.44
2023-03-03T17:23:14.544Z,98980.00
2023-03-03T17:25:40.420Z,98978.03
2023-03-03T17:28:05.002Z,98982.06
2023-03-03T17:30:25.400Z,98984.44
2023-03-03T17:33:05.826Z,98980.53
2023-03-03T17:35:22.717Z,98986.97
2023-03-03T17:37:37.345Z,98985.53
2023-03-03T17:39:45.026Z,98996.09
2023-03-03T17:42:25.074Z,99003.41
2023-03-03T17:44:49.457Z,99005.16
2023-03-03T17:46:55.513Z,99017.38
2023-03-03T17:49:18.363Z,99013.69
2023-03-03T17:51:29.727Z,99014.38
2023-03-03T17:54:03.821Z,99023.25
2023-03-03T17:56:20.548Z,99020.66
2023-03-03T17:58:45.152Z,99017.50
2023-03-03T18:01:01.159Z,99036.25
2023-03-03T18:03:33.964Z,99028.97
2023-03-03T18:05:57.191Z,99035.13
2023-03-03T18:08:06.240Z,99043.41
2023-03-03T18:10:18.586Z,99040.50
2023-03-03T18:12:44.985Z,99041.97
2023-03-03T18:15:05.494Z,99045.94
2023-03-03T18:17:25.905Z,99044.41
2023-03-03T18:19:49.298Z,99043.41
2023-03-03T18:22:11.200Z,99050.56
2023-03-03T18:24:28.567Z,99054.78
2023-03-03T18:26:36.692Z,99042.81
2023-03-03T18:28:50.565Z,99048.66
2023-03-03T18:31:00.645Z,99048.81
2023-03-03T18:33:07.698Z,99044.00
2023-03-03T18:35:33.781Z,99051.72
2023-03-03T18:37:40.432Z,99042.50
2023-03-03T18:39:45.997Z,99052.47
2023-03-03T18:42:11.087Z,99052.25
2023-03-03T18:44:30.520Z,99050.72
2023-03-03T18:46:32.053Z,99056.28
2023-03-03T18:49:01.403Z,99056.66
2023-03-03T18:51:03.355Z,99061.88
2023-03-03T18:53:11.122Z,99060.56
2023-03-03T18:55:12.701Z,99058.78
2023-03-03T18:57:18.543Z,99060.19
2023-03-03T18:59:35.298Z,99053.19
2023-03-03T19:01:44.913Z,99058.50
2023-03-03T19:03:49.112Z,99057.19
2023-03-03T19:05:57.637Z,99057.28
2023-03-03T19:08:24.450Z,99064.75
2023-03-03T19:10:44.484Z,99065.53
2023-03-03T19:12:49.414Z,99067.06
2023-03-03T19:14:51.049Z,99067.16
2023-03-03T19:16:54.433Z,99065.13
2023-03-03T19:18:55.956Z,99069.59
2023-03-03T19:21:06.269Z,99065.31
2023-03-03T19:23:20.378Z,99071.91
2023-03-03T19:25:26.122Z,99073.69
2023-03-03T19:27:39.860Z,99069.16
2023-03-03T19:29:44.257Z,99072.78
2023-03-03T19:32:08.450Z,99073.09
2023-03-03T19:34:40.131Z,99083.22
2023-03-03T19:36:57.193Z,99081.63
2023-03-03T19:39:01.538Z,99086.91
2023-03-03T19:41:41.721Z,99079.28
2023-03-03T19:43:43.249Z,99084.00
2023-03-03T19:46:09.762Z,99082.75
2023-03-03T19:48:25.382Z,99080.56
2023-03-03T19:50:42.752Z,99086.91
2023-03-03T19:52:56.623Z,99093.22
2023-03-03T19:55:16.570Z,99092.69
2023-03-03T19:57:48.994Z,99098.38
2023-03-03T20:00:02.942Z,99095.50
2023-03-03T20:02:57.164Z,99111.84
2023-03-03T20:05:21.192Z,99106.69
2023-03-03T20:07:40.994Z,99115.50
2023-03-03T20:09:55.455Z,99119.31
2023-03-03T20:11:59.819Z,99118.72
2023-03-03T20:14:23.878Z,99114.38
2023-03-03T20:16:41.398Z,99122.97
2023-03-03T20:19:02.449Z,99123.00
2023-03-03T20:21:15.254Z,99123.63
2023-03-03T20:23:39.943Z,99139.97
2023-03-03T20:26:07.420Z,99140.63
2023-03-03T20:28:31.713Z,99138.34
2023-03-03T20:30:55.228Z,99145.69
2023-03-03T20:33:11.196Z,99140.09
2023-03-03T20:35:30.904Z,99149.91
2023-03-03T20:37:52.616Z,99145.16
2023-03-03T20:40:21.166Z,99149.31
2023-03-03T20:42:42.012Z,99148.31
2023-03-03T20:44:55.386Z,99150.84
2023-03-03T20:47:23.208Z,99148.75
2023-03-03T20:49:52.693Z,99150.66
2023-03-03T20:52:03.569Z,99156.75
2023-03-03T20:54:15.826Z,99149.25
2023-03-03T20:56:41.597Z,99154.47
2023-03-03T20:59:09.515Z,99161.34
2023-03-03T21:01:17.806Z,99163.06
2023-03-03T21:03:34.288Z,99167.03
2023-03-03T21:05:54.878Z,99155.78
2023-03-03T21:07:58.850Z,99155.34
2023-03-03T21:10:23.950Z,99151.81
2023-03-03T21:12:29.251Z,99158.31
2023-03-03T21:14:35.772Z,99158.50
2023-03-03T21:16:37.571Z,99158.91
2023-03-03T21:18:39.641Z,99162.88
2023-03-03T21:20:41.308Z,99166.44
2023-03-03T21:22:42.970Z,99161.44
2023-03-03T21:24:56.206Z,99163.94
2023-03-03T21:27:00.274Z,99153.31
2023-03-03T21:29:03.571Z,99155.63
2023-03-03T21:31:13.378Z,99146.88
2023-03-03T21:33:43.573Z,99148.31
2023-03-03T21:35:58.724Z,99155.22
2023-03-03T21:38:00.407Z,99159.78
2023-03-03T21:40:23.398Z,99156.03
2023-03-03T21:42:42.363Z,99151.03
2023-03-03T21:44:51.822Z,99157.91
2023-03-03T21:46:53.398Z,99151.25
2023-03-03T21:48:55.048Z,99147.28
2023-03-03T21:50:56.844Z,99151.47
2023-03-03T21:52:58.431Z,99151.03
2023-03-03T21:55:00.047Z,99145.00
2023-03-03T21:57:01.654Z,99149.97
2023-03-03T21:59:03.413Z,99149.97
2023-03-03T22:01:06.662Z,99148.75
2023-03-03T22:03:08.187Z,99146.44
2023-03-03T22:05:09.963Z,99141.63
2023-03-03T22:07:11.594Z,99146.41
2023-03-03T22:09:13.275Z,99158.47
2023-03-03T22:11:15.684Z,99148.28
2023-03-03T22:13:20.067Z,99150.56
2023-03-03T22:15:21.747Z,99154.06
2023-03-03T22:17:25.576Z,99152.19
2023-03-03T22:19:27.122Z,99157.22
2023-03-03T22:21:29.813Z,99150.53
2023-03-03T22:23:32.783Z,99147.19
2023-03-03T22:25:34.366Z,99149.47
2023-03-03T22:27:35.936Z,99154.25
2023-03-03T22:29:37.494Z,99151.94
2023-03-03T22:31:39.972Z,99150.47
2023-03-03T22:33:41.923Z,99148.00
2023-03-03T22:35:44.005Z,99156.31
2023-03-03T22:37:45.580Z,99160.44
2023-03-03T22:39:48.461Z,99150.88
2023-03-03T22:41:50.052Z,99155.88
2023-03-03T22:43:51.653Z,99161.69
2023-03-03T22:45:53.384Z,99158.53
2023-03-03T22:47:55.005Z,99158.75
2023-03-03T22:49:56.680Z,99162.47
2023-03-03T22:51:58.921Z,99161.84
2023-03-03T22:54:00.493Z,99153.28
2023-03-03T22:56:02.147Z,99147.28
2023-03-03T22:58:04.619Z,99151.84
2023-03-03T23:00:09.001Z,99171.16
2023-03-03T23:02:10.552Z,99165.31
2023-03-03T23:04:12.109Z,99165.72
2023-03-03T23:06:13.771Z,99164.47
2023-03-03T23:08:17.461Z,99157.38
2023-03-03T23:10:19.539Z,99168.41
2023-03-03T23:12:21.136Z,99159.00
2023-03-03T23:14:22.729Z,99154.00
2023-03-03T23:16:24.530Z,99157.13
2023-03-03T23:18:28.335Z,99164.56
2023-03-03T23:20:31.610Z,99152.31
2023-03-03T23:22:33.192Z,99154.59
2023-03-03T23:24:34.868Z,99164.75
2023-03-03T23:26:37.295Z,99160.59
2023-03-03T23:28:38.903Z,99162.63
2023-03-03T23:30:40.524Z,99165.53
2023-03-03T23:32:42.383Z,99165.94
2023-03-03T23:34:44.171Z,99171.34
2023-03-03T23:36:45.865Z,99166.34
2023-03-03T23:38:47.516Z,99169.63
2023-03-03T23:40:49.124Z,99173.56
2023-03-03T23:42:50.883Z,99172.94
2023-03-03T23:44:52.608Z,99173.31
2023-03-03T23:46:54.242Z,99168.31
2023-03-03T23:48:55.875Z,99173.91
2023-03-03T23:50:57.603Z,99174.13
2023-03-03T23:52:59.297Z,99175.34
2023-03-03T23:55:01.549Z,99172.19
2023-03-03T23:57:03.538Z,99161.63
2023-03-03T23:59:05.069Z,99179.03
